sensor_id;sensor_type;location;lat;lon;timestamp;P1;durP1;ratioP1;P2;durP2;ratioP2
5521;SDS011;2783;48.730;8.006;2022-09-01T00:00:38;21.88;;;12.95;;
5521;SDS011;2783;48.730;8.006;2022-09-01T00:03:06;21.17;;;13.77;;
5521;SDS011;2783;48.730;8.006;2022-09-01T00:05:35;18.77;;;12.07;;
5521;SDS011;2783;48.730;8.006;2022-09-01T00:08:01;21.50;;;12.68;;
5521;SDS011;2783;48.730;8.006;2022-09-01T00:10:27;21.70;;;13.68;;
5521;SDS011;2783;48.730;8.006;2022-09-01T00:12:53;19.55;;;12.88;;
5521;SDS011;2783;48.730;8.006;2022-09-01T00:15:18;18.30;;;12.70;;
5521;SDS011;2783;48.730;8.006;2022-09-01T00:17:44;23.77;;;12.40;;
5521;SDS011;2783;48.730;8.006;2022-09-01T00:20:10;22.27;;;12.43;;
5521;SDS011;2783;48.730;8.006;2022-09-01T00:22:35;20.08;;;12.75;;
5521;SDS011;2783;48.730;8.006;2022-09-01T00:25:01;19.00;;;11.82;;
5521;SDS011;2783;48.730;8.006;2022-09-01T00:27:26;17.83;;;11.95;;
5521;SDS011;2783;48.730;8.006;2022-09-01T00:29:52;17.85;;;11.38;;
5521;SDS011;2783;48.730;8.006;2022-09-01T00:32:17;19.17;;;10.65;;
5521;SDS011;2783;48.730;8.006;2022-09-01T00:34:43;16.95;;;11.40;;
5521;SDS011;2783;48.730;8.006;2022-09-01T00:37:09;17.23;;;10.30;;
5521;SDS011;2783;48.730;8.006;2022-09-01T00:39:34;16.20;;;10.05;;
5521;SDS011;2783;48.730;8.006;2022-09-01T00:42:00;17.85;;;10.68;;
5521;SDS011;2783;48.730;8.006;2022-09-01T00:44:26;15.43;;;10.30;;
5521;SDS011;2783;48.730;8.006;2022-09-01T00:46:52;14.18;;;9.18;;
5521;SDS011;2783;48.730;8.006;2022-09-01T00:54:52;13.25;;;9.93;;
5521;SDS011;2783;48.730;8.006;2022-09-01T00:57:22;11.77;;;8.73;;
5521;SDS011;2783;48.730;8.006;2022-09-01T00:59:50;14.25;;;9.05;;
5521;SDS011;2783;48.730;8.006;2022-09-01T01:02:21;14.85;;;9.57;;
5521;SDS011;2783;48.730;8.006;2022-09-01T01:07:37;14.40;;;9.38;;
5521;SDS011;2783;48.730;8.006;2022-09-01T01:10:08;12.38;;;8.30;;
5521;SDS011;2783;48.730;8.006;2022-09-01T01:12:36;13.63;;;8.07;;
5521;SDS011;2783;48.730;8.006;2022-09-01T01:15:05;13.73;;;8.48;;
5521;SDS011;2783;48.730;8.006;2022-09-01T01:17:31;12.20;;;8.13;;
5521;SDS011;2783;48.730;8.006;2022-09-01T01:19:57;12.60;;;7.78;;
5521;SDS011;2783;48.730;8.006;2022-09-01T01:25:52;12.95;;;7.85;;
5521;SDS011;2783;48.730;8.006;2022-09-01T01:28:27;15.40;;;7.57;;
5521;SDS011;2783;48.730;8.006;2022-09-01T01:30:57;10.30;;;7.45;;
5521;SDS011;2783;48.730;8.006;2022-09-01T01:33:30;12.05;;;7.75;;
5521;SDS011;2783;48.730;8.006;2022-09-01T01:35:59;11.93;;;8.32;;
5521;SDS011;2783;48.730;8.006;2022-09-01T01:38:25;10.27;;;6.75;;
5521;SDS011;2783;48.730;8.006;2022-09-01T01:40:52;11.15;;;7.45;;
5521;SDS011;2783;48.730;8.006;2022-09-01T01:43:18;12.48;;;7.88;;
5521;SDS011;2783;48.730;8.006;2022-09-01T01:45:46;10.65;;;7.22;;
5521;SDS011;2783;48.730;8.006;2022-09-01T01:48:15;12.40;;;7.10;;
5521;SDS011;2783;48.730;8.006;2022-09-01T01:50:49;10.60;;;7.13;;
5521;SDS011;2783;48.730;8.006;2022-09-01T01:53:16;11.40;;;6.85;;
5521;SDS011;2783;48.730;8.006;2022-09-01T01:55:43;12.02;;;7.40;;
5521;SDS011;2783;48.730;8.006;2022-09-01T01:58:09;13.45;;;7.28;;
5521;SDS011;2783;48.730;8.006;2022-09-01T02:00:36;12.23;;;7.13;;
5521;SDS011;2783;48.730;8.006;2022-09-01T02:03:02;10.38;;;7.15;;
5521;SDS011;2783;48.730;8.006;2022-09-01T02:05:30;12.43;;;7.13;;
5521;SDS011;2783;48.730;8.006;2022-09-01T02:07:59;12.30;;;7.05;;
5521;SDS011;2783;48.730;8.006;2022-09-01T02:10:32;9.18;;;6.32;;
5521;SDS011;2783;48.730;8.006;2022-09-01T02:13:01;9.05;;;6.43;;
5521;SDS011;2783;48.730;8.006;2022-09-01T02:15:31;10.27;;;7.28;;
5521;SDS011;2783;48.730;8.006;2022-09-01T02:18:07;11.48;;;7.55;;
5521;SDS011;2783;48.730;8.006;2022-09-01T02:20:35;9.50;;;6.47;;
5521;SDS011;2783;48.730;8.006;2022-09-01T02:23:00;9.68;;;7.18;;
5521;SDS011;2783;48.730;8.006;2022-09-01T02:25:33;10.80;;;7.17;;
5521;SDS011;2783;48.730;8.006;2022-09-01T02:27:59;9.73;;;6.97;;
5521;SDS011;2783;48.730;8.006;2022-09-01T02:30:26;13.05;;;6.70;;
5521;SDS011;2783;48.730;8.006;2022-09-01T02:32:52;10.85;;;6.53;;
5521;SDS011;2783;48.730;8.006;2022-09-01T02:35:18;8.88;;;6.53;;
5521;SDS011;2783;48.730;8.006;2022-09-01T02:37:43;9.07;;;6.10;;
5521;SDS011;2783;48.730;8.006;2022-09-01T02:40:13;9.15;;;6.05;;
5521;SDS011;2783;48.730;8.006;2022-09-01T02:42:39;10.85;;;6.50;;
5521;SDS011;2783;48.730;8.006;2022-09-01T02:45:07;9.07;;;6.68;;
5521;SDS011;2783;48.730;8.006;2022-09-01T02:47:36;9.60;;;6.75;;
5521;SDS011;2783;48.730;8.006;2022-09-01T02:50:06;8.38;;;6.50;;
5521;SDS011;2783;48.730;8.006;2022-09-01T02:52:37;9.80;;;6.65;;
5521;SDS011;2783;48.730;8.006;2022-09-01T02:55:05;11.38;;;7.38;;
5521;SDS011;2783;48.730;8.006;2022-09-01T02:57:31;9.07;;;6.60;;
5521;SDS011;2783;48.730;8.006;2022-09-01T02:59:58;8.75;;;6.05;;
5521;SDS011;2783;48.730;8.006;2022-09-01T03:02:24;12.63;;;7.15;;
5521;SDS011;2783;48.730;8.006;2022-09-01T03:04:53;9.85;;;6.60;;
5521;SDS011;2783;48.730;8.006;2022-09-01T03:07:19;11.18;;;6.78;;
5521;SDS011;2783;48.730;8.006;2022-09-01T03:09:48;8.63;;;6.20;;
5521;SDS011;2783;48.730;8.006;2022-09-01T03:12:13;9.00;;;6.35;;
5521;SDS011;2783;48.730;8.006;2022-09-01T03:14:40;10.88;;;6.75;;
5521;SDS011;2783;48.730;8.006;2022-09-01T03:17:06;10.15;;;6.78;;
5521;SDS011;2783;48.730;8.006;2022-09-01T03:19:31;8.73;;;6.80;;
5521;SDS011;2783;48.730;8.006;2022-09-01T03:22:08;11.80;;;6.97;;
5521;SDS011;2783;48.730;8.006;2022-09-01T03:24:33;9.93;;;6.35;;
5521;SDS011;2783;48.730;8.006;2022-09-01T03:27:00;9.93;;;7.25;;
5521;SDS011;2783;48.730;8.006;2022-09-01T03:29:25;12.15;;;6.93;;
5521;SDS011;2783;48.730;8.006;2022-09-01T03:31:51;11.05;;;7.18;;
5521;SDS011;2783;48.730;8.006;2022-09-01T03:34:16;9.80;;;6.50;;
5521;SDS011;2783;48.730;8.006;2022-09-01T03:36:44;10.48;;;6.63;;
5521;SDS011;2783;48.730;8.006;2022-09-01T03:39:14;10.18;;;7.07;;
5521;SDS011;2783;48.730;8.006;2022-09-01T03:41:42;9.82;;;7.13;;
5521;SDS011;2783;48.730;8.006;2022-09-01T03:44:08;12.38;;;7.78;;
5521;SDS011;2783;48.730;8.006;2022-09-01T03:46:36;9.00;;;6.28;;
5521;SDS011;2783;48.730;8.006;2022-09-01T03:49:03;12.23;;;7.82;;
5521;SDS011;2783;48.730;8.006;2022-09-01T03:51:31;12.38;;;7.10;;
5521;SDS011;2783;48.730;8.006;2022-09-01T03:53:57;15.80;;;7.40;;
5521;SDS011;2783;48.730;8.006;2022-09-01T03:56:23;9.18;;;7.00;;
5521;SDS011;2783;48.730;8.006;2022-09-01T03:58:54;13.48;;;7.50;;
5521;SDS011;2783;48.730;8.006;2022-09-01T04:01:20;13.05;;;7.43;;
5521;SDS011;2783;48.730;8.006;2022-09-01T04:03:46;10.20;;;7.15;;
5521;SDS011;2783;48.730;8.006;2022-09-01T04:06:14;10.68;;;7.35;;
5521;SDS011;2783;48.730;8.006;2022-09-01T04:08:42;10.15;;;7.53;;
5521;SDS011;2783;48.730;8.006;2022-09-01T04:11:16;9.07;;;6.68;;
5521;SDS011;2783;48.730;8.006;2022-09-01T04:13:43;10.88;;;7.55;;
5521;SDS011;2783;48.730;8.006;2022-09-01T04:16:18;13.65;;;8.20;;
5521;SDS011;2783;48.730;8.006;2022-09-01T04:19:03;11.52;;;7.53;;
5521;SDS011;2783;48.730;8.006;2022-09-01T04:21:39;13.90;;;8.18;;
5521;SDS011;2783;48.730;8.006;2022-09-01T04:24:07;9.52;;;7.47;;
5521;SDS011;2783;48.730;8.006;2022-09-01T04:26:33;10.80;;;7.55;;
5521;SDS011;2783;48.730;8.006;2022-09-01T04:28:59;13.02;;;7.78;;
5521;SDS011;2783;48.730;8.006;2022-09-01T04:31:25;11.70;;;7.57;;
5521;SDS011;2783;48.730;8.006;2022-09-01T04:33:50;10.43;;;7.57;;
5521;SDS011;2783;48.730;8.006;2022-09-01T04:36:27;12.10;;;7.10;;
5521;SDS011;2783;48.730;8.006;2022-09-01T04:38:58;11.80;;;7.35;;
5521;SDS011;2783;48.730;8.006;2022-09-01T04:41:26;10.50;;;7.47;;
5521;SDS011;2783;48.730;8.006;2022-09-01T04:43:56;9.63;;;7.00;;
5521;SDS011;2783;48.730;8.006;2022-09-01T04:46:23;11.98;;;8.13;;
5521;SDS011;2783;48.730;8.006;2022-09-01T04:48:52;12.32;;;7.72;;
5521;SDS011;2783;48.730;8.006;2022-09-01T04:51:19;12.02;;;7.53;;
5521;SDS011;2783;48.730;8.006;2022-09-01T04:53:47;11.57;;;7.47;;
5521;SDS011;2783;48.730;8.006;2022-09-01T04:56:15;10.23;;;7.30;;
5521;SDS011;2783;48.730;8.006;2022-09-01T04:58:43;14.73;;;7.82;;
5521;SDS011;2783;48.730;8.006;2022-09-01T05:01:16;11.48;;;7.13;;
5521;SDS011;2783;48.730;8.006;2022-09-01T05:03:43;12.35;;;6.93;;
5521;SDS011;2783;48.730;8.006;2022-09-01T05:06:13;10.65;;;6.90;;
5521;SDS011;2783;48.730;8.006;2022-09-01T05:08:41;11.95;;;6.70;;
5521;SDS011;2783;48.730;8.006;2022-09-01T05:11:09;14.38;;;7.63;;
5521;SDS011;2783;48.730;8.006;2022-09-01T05:13:36;14.00;;;7.78;;
5521;SDS011;2783;48.730;8.006;2022-09-01T05:16:07;17.30;;;8.48;;
5521;SDS011;2783;48.730;8.006;2022-09-01T05:18:40;11.30;;;8.07;;
5521;SDS011;2783;48.730;8.006;2022-09-01T05:21:09;15.02;;;9.05;;
5521;SDS011;2783;48.730;8.006;2022-09-01T05:23:35;15.77;;;9.13;;
5521;SDS011;2783;48.730;8.006;2022-09-01T05:26:04;11.27;;;7.22;;
5521;SDS011;2783;48.730;8.006;2022-09-01T05:28:39;14.23;;;7.93;;
5521;SDS011;2783;48.730;8.006;2022-09-01T05:31:05;12.75;;;8.38;;
5521;SDS011;2783;48.730;8.006;2022-09-01T05:33:31;13.48;;;8.10;;
5521;SDS011;2783;48.730;8.006;2022-09-01T05:35:59;12.80;;;8.75;;
5521;SDS011;2783;48.730;8.006;2022-09-01T05:38:26;14.32;;;8.75;;
5521;SDS011;2783;48.730;8.006;2022-09-01T05:40:59;15.73;;;8.15;;
5521;SDS011;2783;48.730;8.006;2022-09-01T05:43:32;13.70;;;7.97;;
5521;SDS011;2783;48.730;8.006;2022-09-01T05:45:59;16.25;;;8.50;;
5521;SDS011;2783;48.730;8.006;2022-09-01T05:48:25;12.55;;;9.18;;
5521;SDS011;2783;48.730;8.006;2022-09-01T05:50:55;11.82;;;8.90;;
5521;SDS011;2783;48.730;8.006;2022-09-01T05:53:24;13.32;;;9.13;;
5521;SDS011;2783;48.730;8.006;2022-09-01T05:55:52;14.02;;;9.02;;
5521;SDS011;2783;48.730;8.006;2022-09-01T05:58:21;14.50;;;9.65;;
5521;SDS011;2783;48.730;8.006;2022-09-01T06:00:49;12.40;;;8.60;;
5521;SDS011;2783;48.730;8.006;2022-09-01T06:03:17;15.40;;;9.00;;
5521;SDS011;2783;48.730;8.006;2022-09-01T06:05:43;11.57;;;8.18;;
5521;SDS011;2783;48.730;8.006;2022-09-01T06:08:12;12.68;;;8.93;;
5521;SDS011;2783;48.730;8.006;2022-09-01T06:10:44;13.88;;;8.82;;
5521;SDS011;2783;48.730;8.006;2022-09-01T06:13:09;13.63;;;10.15;;
5521;SDS011;2783;48.730;8.006;2022-09-01T06:15:36;14.45;;;10.55;;
5521;SDS011;2783;48.730;8.006;2022-09-01T06:18:05;13.27;;;8.48;;
5521;SDS011;2783;48.730;8.006;2022-09-01T06:20:33;13.18;;;7.97;;
5521;SDS011;2783;48.730;8.006;2022-09-01T06:23:03;13.10;;;8.57;;
5521;SDS011;2783;48.730;8.006;2022-09-01T06:25:28;13.35;;;8.75;;
5521;SDS011;2783;48.730;8.006;2022-09-01T06:27:54;14.45;;;8.43;;
5521;SDS011;2783;48.730;8.006;2022-09-01T06:30:21;12.70;;;9.35;;
5521;SDS011;2783;48.730;8.006;2022-09-01T06:32:50;12.93;;;8.23;;
5521;SDS011;2783;48.730;8.006;2022-09-01T06:35:19;11.27;;;8.02;;
5521;SDS011;2783;48.730;8.006;2022-09-01T06:37:46;12.23;;;7.90;;
5521;SDS011;2783;48.730;8.006;2022-09-01T06:40:13;11.50;;;8.48;;
5521;SDS011;2783;48.730;8.006;2022-09-01T06:42:46;11.25;;;7.90;;
5521;SDS011;2783;48.730;8.006;2022-09-01T06:45:13;12.13;;;8.27;;
5521;SDS011;2783;48.730;8.006;2022-09-01T06:47:40;11.75;;;7.10;;
5521;SDS011;2783;48.730;8.006;2022-09-01T06:50:13;10.05;;;6.88;;
5521;SDS011;2783;48.730;8.006;2022-09-01T06:52:43;11.48;;;7.80;;
5521;SDS011;2783;48.730;8.006;2022-09-01T06:55:09;12.60;;;7.95;;
5521;SDS011;2783;48.730;8.006;2022-09-01T06:57:37;11.13;;;7.80;;
5521;SDS011;2783;48.730;8.006;2022-09-01T07:00:06;11.43;;;7.30;;
5521;SDS011;2783;48.730;8.006;2022-09-01T07:02:51;10.82;;;7.28;;
5521;SDS011;2783;48.730;8.006;2022-09-01T07:05:19;9.57;;;6.82;;
5521;SDS011;2783;48.730;8.006;2022-09-01T07:07:47;10.50;;;7.05;;
5521;SDS011;2783;48.730;8.006;2022-09-01T07:10:15;11.20;;;6.93;;
5521;SDS011;2783;48.730;8.006;2022-09-01T07:12:44;8.85;;;6.85;;
5521;SDS011;2783;48.730;8.006;2022-09-01T07:15:12;9.93;;;5.97;;
5521;SDS011;2783;48.730;8.006;2022-09-01T07:17:41;11.63;;;6.50;;
5521;SDS011;2783;48.730;8.006;2022-09-01T07:20:07;10.43;;;6.15;;
5521;SDS011;2783;48.730;8.006;2022-09-01T07:22:35;9.80;;;5.93;;
5521;SDS011;2783;48.730;8.006;2022-09-01T07:25:00;10.13;;;6.43;;
5521;SDS011;2783;48.730;8.006;2022-09-01T07:27:26;9.48;;;6.50;;
5521;SDS011;2783;48.730;8.006;2022-09-01T07:29:52;9.52;;;6.38;;
5521;SDS011;2783;48.730;8.006;2022-09-01T07:32:20;8.23;;;6.00;;
5521;SDS011;2783;48.730;8.006;2022-09-01T07:34:45;11.05;;;6.28;;
5521;SDS011;2783;48.730;8.006;2022-09-01T07:37:11;9.70;;;6.88;;
5521;SDS011;2783;48.730;8.006;2022-09-01T07:39:37;8.70;;;5.85;;
5521;SDS011;2783;48.730;8.006;2022-09-01T07:42:10;8.27;;;5.97;;
5521;SDS011;2783;48.730;8.006;2022-09-01T07:44:36;10.23;;;5.90;;
5521;SDS011;2783;48.730;8.006;2022-09-01T07:47:02;8.68;;;5.78;;
5521;SDS011;2783;48.730;8.006;2022-09-01T07:49:32;9.68;;;5.93;;
5521;SDS011;2783;48.730;8.006;2022-09-01T07:51:58;8.07;;;5.38;;
5521;SDS011;2783;48.730;8.006;2022-09-01T07:54:27;8.77;;;5.82;;
5521;SDS011;2783;48.730;8.006;2022-09-01T07:56:54;9.60;;;6.10;;
5521;SDS011;2783;48.730;8.006;2022-09-01T07:59:21;10.05;;;6.70;;
5521;SDS011;2783;48.730;8.006;2022-09-01T08:01:47;9.10;;;6.07;;
5521;SDS011;2783;48.730;8.006;2022-09-01T08:04:13;8.63;;;5.78;;
5521;SDS011;2783;48.730;8.006;2022-09-01T08:06:39;8.73;;;5.65;;
5521;SDS011;2783;48.730;8.006;2022-09-01T08:09:04;8.93;;;5.60;;
5521;SDS011;2783;48.730;8.006;2022-09-01T08:11:34;9.02;;;5.60;;
5521;SDS011;2783;48.730;8.006;2022-09-01T08:14:00;8.15;;;5.43;;
5521;SDS011;2783;48.730;8.006;2022-09-01T08:16:26;9.80;;;5.40;;
5521;SDS011;2783;48.730;8.006;2022-09-01T08:18:53;10.25;;;6.47;;
5521;SDS011;2783;48.730;8.006;2022-09-01T08:21:19;7.28;;;5.10;;
5521;SDS011;2783;48.730;8.006;2022-09-01T08:23:47;9.65;;;5.45;;
5521;SDS011;2783;48.730;8.006;2022-09-01T08:26:15;8.68;;;5.43;;
5521;SDS011;2783;48.730;8.006;2022-09-01T08:28:42;8.55;;;5.30;;
5521;SDS011;2783;48.730;8.006;2022-09-01T08:31:09;9.20;;;5.35;;
5521;SDS011;2783;48.730;8.006;2022-09-01T08:33:37;8.68;;;5.10;;
5521;SDS011;2783;48.730;8.006;2022-09-01T08:36:08;7.43;;;4.40;;
5521;SDS011;2783;48.730;8.006;2022-09-01T08:38:36;6.38;;;4.30;;
5521;SDS011;2783;48.730;8.006;2022-09-01T08:41:02;6.40;;;4.38;;
5521;SDS011;2783;48.730;8.006;2022-09-01T08:46:40;5.97;;;3.70;;
5521;SDS011;2783;48.730;8.006;2022-09-01T08:49:17;8.25;;;4.95;;
5521;SDS011;2783;48.730;8.006;2022-09-01T08:54:36;7.68;;;4.45;;
5521;SDS011;2783;48.730;8.006;2022-09-01T08:57:10;6.50;;;3.72;;
5521;SDS011;2783;48.730;8.006;2022-09-01T08:59:51;7.30;;;4.53;;
5521;SDS011;2783;48.730;8.006;2022-09-01T09:16:48;7.68;;;3.83;;
5521;SDS011;2783;48.730;8.006;2022-09-01T09:21:44;6.57;;;3.65;;
5521;SDS011;2783;48.730;8.006;2022-09-01T09:26:39;7.90;;;3.65;;
5521;SDS011;2783;48.730;8.006;2022-09-01T09:29:04;5.88;;;3.80;;
5521;SDS011;2783;48.730;8.006;2022-09-01T09:31:31;7.90;;;3.90;;
5521;SDS011;2783;48.730;8.006;2022-09-01T09:33:58;6.60;;;3.60;;
5521;SDS011;2783;48.730;8.006;2022-09-01T09:36:29;5.63;;;3.22;;
5521;SDS011;2783;48.730;8.006;2022-09-01T09:39:08;7.55;;;3.45;;
5521;SDS011;2783;48.730;8.006;2022-09-01T09:41:40;4.88;;;3.08;;
5521;SDS011;2783;48.730;8.006;2022-09-01T09:46:38;6.20;;;3.40;;
5521;SDS011;2783;48.730;8.006;2022-09-01T09:49:16;5.50;;;3.25;;
5521;SDS011;2783;48.730;8.006;2022-09-01T09:54:19;5.72;;;2.78;;
5521;SDS011;2783;48.730;8.006;2022-09-01T09:56:47;5.38;;;3.17;;
5521;SDS011;2783;48.730;8.006;2022-09-01T09:59:17;5.72;;;3.08;;
5521;SDS011;2783;48.730;8.006;2022-09-01T10:01:47;5.93;;;2.58;;
5521;SDS011;2783;48.730;8.006;2022-09-01T10:04:30;5.13;;;2.35;;
5521;SDS011;2783;48.730;8.006;2022-09-01T10:07:22;4.60;;;2.80;;
5521;SDS011;2783;48.730;8.006;2022-09-01T10:09:50;4.88;;;2.72;;
5521;SDS011;2783;48.730;8.006;2022-09-01T10:12:18;4.43;;;3.13;;
5521;SDS011;2783;48.730;8.006;2022-09-01T10:14:45;4.35;;;2.80;;
5521;SDS011;2783;48.730;8.006;2022-09-01T10:20:11;4.68;;;2.22;;
5521;SDS011;2783;48.730;8.006;2022-09-01T10:22:41;4.45;;;2.60;;
5521;SDS011;2783;48.730;8.006;2022-09-01T10:25:08;3.60;;;2.13;;
5521;SDS011;2783;48.730;8.006;2022-09-01T10:27:43;3.13;;;2.25;;
5521;SDS011;2783;48.730;8.006;2022-09-01T10:30:18;7.75;;;3.50;;
5521;SDS011;2783;48.730;8.006;2022-09-01T10:32:46;7.38;;;3.97;;
5521;SDS011;2783;48.730;8.006;2022-09-01T10:35:28;6.65;;;3.15;;
5521;SDS011;2783;48.730;8.006;2022-09-01T10:38:00;11.25;;;5.38;;
5521;SDS011;2783;48.730;8.006;2022-09-01T10:40:41;7.65;;;2.72;;
5521;SDS011;2783;48.730;8.006;2022-09-01T10:45:49;5.45;;;2.17;;
5521;SDS011;2783;48.730;8.006;2022-09-01T10:48:31;4.55;;;2.30;;
5521;SDS011;2783;48.730;8.006;2022-09-01T10:53:40;21.88;;;11.27;;
5521;SDS011;2783;48.730;8.006;2022-09-01T11:02:02;5.72;;;3.60;;
5521;SDS011;2783;48.730;8.006;2022-09-01T11:04:14;4.05;;;2.55;;
5521;SDS011;2783;48.730;8.006;2022-09-01T11:09:34;5.10;;;2.17;;
5521;SDS011;2783;48.730;8.006;2022-09-01T11:12:09;4.47;;;2.35;;
5521;SDS011;2783;48.730;8.006;2022-09-01T11:15:01;3.70;;;2.00;;
5521;SDS011;2783;48.730;8.006;2022-09-01T11:17:31;5.00;;;2.38;;
5521;SDS011;2783;48.730;8.006;2022-09-01T11:20:08;3.90;;;2.47;;
5521;SDS011;2783;48.730;8.006;2022-09-01T11:28:06;3.33;;;2.03;;
5521;SDS011;2783;48.730;8.006;2022-09-01T11:30:46;5.30;;;2.25;;
5521;SDS011;2783;48.730;8.006;2022-09-01T11:33:31;3.83;;;2.55;;
5521;SDS011;2783;48.730;8.006;2022-09-01T11:36:02;3.97;;;1.98;;
5521;SDS011;2783;48.730;8.006;2022-09-01T11:38:46;3.45;;;2.10;;
5521;SDS011;2783;48.730;8.006;2022-09-01T11:41:25;3.20;;;1.83;;
5521;SDS011;2783;48.730;8.006;2022-09-01T11:43:58;3.13;;;1.77;;
5521;SDS011;2783;48.730;8.006;2022-09-01T11:46:29;5.28;;;2.28;;
5521;SDS011;2783;48.730;8.006;2022-09-01T11:48:58;3.85;;;2.10;;
5521;SDS011;2783;48.730;8.006;2022-09-01T11:51:51;3.15;;;2.03;;
5521;SDS011;2783;48.730;8.006;2022-09-01T11:54:16;3.70;;;2.15;;
5521;SDS011;2783;48.730;8.006;2022-09-01T11:56:41;3.85;;;1.83;;
5521;SDS011;2783;48.730;8.006;2022-09-01T11:59:06;3.92;;;1.80;;
5521;SDS011;2783;48.730;8.006;2022-09-01T12:01:33;4.63;;;2.05;;
5521;SDS011;2783;48.730;8.006;2022-09-01T12:07:00;5.95;;;2.03;;
5521;SDS011;2783;48.730;8.006;2022-09-01T12:09:34;3.88;;;2.13;;
5521;SDS011;2783;48.730;8.006;2022-09-01T12:12:07;4.28;;;1.63;;
5521;SDS011;2783;48.730;8.006;2022-09-01T12:15:00;6.45;;;2.00;;
5521;SDS011;2783;48.730;8.006;2022-09-01T12:17:32;4.65;;;1.70;;
5521;SDS011;2783;48.730;8.006;2022-09-01T12:22:48;4.18;;;1.40;;
5521;SDS011;2783;48.730;8.006;2022-09-01T12:25:22;5.00;;;1.60;;
5521;SDS011;2783;48.730;8.006;2022-09-01T12:27:50;2.88;;;1.48;;
5521;SDS011;2783;48.730;8.006;2022-09-01T12:30:24;2.08;;;1.48;;
5521;SDS011;2783;48.730;8.006;2022-09-01T12:32:50;2.00;;;1.27;;
5521;SDS011;2783;48.730;8.006;2022-09-01T12:35:19;2.83;;;1.70;;
5521;SDS011;2783;48.730;8.006;2022-09-01T12:37:47;3.50;;;1.40;;
5521;SDS011;2783;48.730;8.006;2022-09-01T12:40:48;2.33;;;1.25;;
5521;SDS011;2783;48.730;8.006;2022-09-01T12:43:07;4.07;;;2.00;;
5521;SDS011;2783;48.730;8.006;2022-09-01T12:45:40;2.35;;;1.40;;
5521;SDS011;2783;48.730;8.006;2022-09-01T12:48:31;5.65;;;1.90;;
5521;SDS011;2783;48.730;8.006;2022-09-01T12:51:06;2.88;;;1.70;;
5521;SDS011;2783;48.730;8.006;2022-09-01T12:53:39;2.15;;;1.40;;
5521;SDS011;2783;48.730;8.006;2022-09-01T12:56:19;3.03;;;1.77;;
5521;SDS011;2783;48.730;8.006;2022-09-01T12:58:55;2.50;;;1.48;;
5521;SDS011;2783;48.730;8.006;2022-09-01T13:01:31;2.95;;;1.50;;
5521;SDS011;2783;48.730;8.006;2022-09-01T13:06:35;2.38;;;1.58;;
5521;SDS011;2783;48.730;8.006;2022-09-01T13:09:01;2.80;;;1.50;;
5521;SDS011;2783;48.730;8.006;2022-09-01T13:11:26;2.55;;;1.50;;
5521;SDS011;2783;48.730;8.006;2022-09-01T13:13:52;2.88;;;1.60;;
5521;SDS011;2783;48.730;8.006;2022-09-01T13:16:17;3.30;;;1.65;;
5521;SDS011;2783;48.730;8.006;2022-09-01T13:18:43;2.53;;;1.40;;
5521;SDS011;2783;48.730;8.006;2022-09-01T13:21:08;2.42;;;1.42;;
5521;SDS011;2783;48.730;8.006;2022-09-01T13:23:34;2.75;;;1.58;;
5521;SDS011;2783;48.730;8.006;2022-09-01T13:25:59;3.38;;;1.60;;
5521;SDS011;2783;48.730;8.006;2022-09-01T13:28:26;2.28;;;1.27;;
5521;SDS011;2783;48.730;8.006;2022-09-01T13:30:56;2.03;;;1.50;;
5521;SDS011;2783;48.730;8.006;2022-09-01T13:33:23;2.30;;;1.50;;
5521;SDS011;2783;48.730;8.006;2022-09-01T13:35:52;2.55;;;1.58;;
5521;SDS011;2783;48.730;8.006;2022-09-01T13:38:18;5.47;;;1.73;;
5521;SDS011;2783;48.730;8.006;2022-09-01T13:40:45;4.28;;;1.73;;
5521;SDS011;2783;48.730;8.006;2022-09-01T13:43:12;3.83;;;1.50;;
5521;SDS011;2783;48.730;8.006;2022-09-01T13:45:39;3.20;;;1.73;;
5521;SDS011;2783;48.730;8.006;2022-09-01T13:48:06;3.15;;;1.70;;
5521;SDS011;2783;48.730;8.006;2022-09-01T13:50:32;2.33;;;1.38;;
5521;SDS011;2783;48.730;8.006;2022-09-01T13:52:58;3.85;;;1.85;;
5521;SDS011;2783;48.730;8.006;2022-09-01T13:55:28;4.28;;;1.75;;
5521;SDS011;2783;48.730;8.006;2022-09-01T13:57:55;2.80;;;1.77;;
5521;SDS011;2783;48.730;8.006;2022-09-01T14:00:23;2.85;;;1.40;;
5521;SDS011;2783;48.730;8.006;2022-09-01T14:02:54;2.17;;;1.55;;
5521;SDS011;2783;48.730;8.006;2022-09-01T14:05:22;3.47;;;1.67;;
5521;SDS011;2783;48.730;8.006;2022-09-01T14:07:50;3.67;;;1.42;;
5521;SDS011;2783;48.730;8.006;2022-09-01T14:10:16;2.88;;;1.50;;
5521;SDS011;2783;48.730;8.006;2022-09-01T14:12:43;4.35;;;2.00;;
5521;SDS011;2783;48.730;8.006;2022-09-01T14:15:09;3.20;;;1.75;;
5521;SDS011;2783;48.730;8.006;2022-09-01T14:17:36;4.28;;;1.60;;
5521;SDS011;2783;48.730;8.006;2022-09-01T14:20:03;2.25;;;1.75;;
5521;SDS011;2783;48.730;8.006;2022-09-01T14:22:32;2.50;;;1.60;;
5521;SDS011;2783;48.730;8.006;2022-09-01T14:24:58;2.03;;;1.23;;
5521;SDS011;2783;48.730;8.006;2022-09-01T14:27:24;2.25;;;1.52;;
5521;SDS011;2783;48.730;8.006;2022-09-01T14:29:50;3.15;;;1.92;;
5521;SDS011;2783;48.730;8.006;2022-09-01T14:32:17;2.65;;;1.58;;
5521;SDS011;2783;48.730;8.006;2022-09-01T14:34:45;3.10;;;1.70;;
5521;SDS011;2783;48.730;8.006;2022-09-01T14:37:10;2.90;;;1.60;;
5521;SDS011;2783;48.730;8.006;2022-09-01T14:39:36;3.45;;;1.73;;
5521;SDS011;2783;48.730;8.006;2022-09-01T14:42:02;2.65;;;1.50;;
5521;SDS011;2783;48.730;8.006;2022-09-01T14:44:30;2.97;;;1.67;;
5521;SDS011;2783;48.730;8.006;2022-09-01T14:46:57;2.78;;;1.75;;
5521;SDS011;2783;48.730;8.006;2022-09-01T14:49:23;4.05;;;1.90;;
5521;SDS011;2783;48.730;8.006;2022-09-01T14:51:49;4.22;;;1.90;;
5521;SDS011;2783;48.730;8.006;2022-09-01T14:54:15;4.50;;;1.70;;
5521;SDS011;2783;48.730;8.006;2022-09-01T14:56:40;3.88;;;1.70;;
5521;SDS011;2783;48.730;8.006;2022-09-01T14:59:06;5.28;;;2.20;;
5521;SDS011;2783;48.730;8.006;2022-09-01T15:01:32;2.63;;;1.60;;
5521;SDS011;2783;48.730;8.006;2022-09-01T15:03:58;2.50;;;1.40;;
5521;SDS011;2783;48.730;8.006;2022-09-01T15:06:23;3.08;;;1.40;;
5521;SDS011;2783;48.730;8.006;2022-09-01T15:08:49;2.75;;;1.20;;
5521;SDS011;2783;48.730;8.006;2022-09-01T15:11:16;2.10;;;1.10;;
5521;SDS011;2783;48.730;8.006;2022-09-01T15:13:43;3.85;;;1.20;;
5521;SDS011;2783;48.730;8.006;2022-09-01T15:16:20;2.90;;;1.80;;
5521;SDS011;2783;48.730;8.006;2022-09-01T15:18:47;2.35;;;1.40;;
5521;SDS011;2783;48.730;8.006;2022-09-01T15:21:26;2.85;;;1.83;;
5521;SDS011;2783;48.730;8.006;2022-09-01T15:23:56;3.47;;;2.03;;
5521;SDS011;2783;48.730;8.006;2022-09-01T15:26:21;2.42;;;1.30;;
5521;SDS011;2783;48.730;8.006;2022-09-01T15:28:47;3.33;;;1.33;;
5521;SDS011;2783;48.730;8.006;2022-09-01T15:31:15;2.63;;;1.60;;
5521;SDS011;2783;48.730;8.006;2022-09-01T15:33:42;1.95;;;1.27;;
5521;SDS011;2783;48.730;8.006;2022-09-01T15:36:12;3.08;;;1.52;;
5521;SDS011;2783;48.730;8.006;2022-09-01T15:38:40;3.08;;;1.50;;
5521;SDS011;2783;48.730;8.006;2022-09-01T15:41:05;2.50;;;1.48;;
5521;SDS011;2783;48.730;8.006;2022-09-01T15:43:31;3.05;;;1.60;;
5521;SDS011;2783;48.730;8.006;2022-09-01T15:45:57;2.15;;;1.27;;
5521;SDS011;2783;48.730;8.006;2022-09-01T15:48:24;2.15;;;1.25;;
5521;SDS011;2783;48.730;8.006;2022-09-01T15:50:50;3.03;;;1.42;;
5521;SDS011;2783;48.730;8.006;2022-09-01T15:53:16;3.55;;;1.33;;
5521;SDS011;2783;48.730;8.006;2022-09-01T15:55:44;1.70;;;1.25;;
5521;SDS011;2783;48.730;8.006;2022-09-01T15:58:12;2.03;;;1.02;;
5521;SDS011;2783;48.730;8.006;2022-09-01T16:00:39;2.72;;;1.20;;
5521;SDS011;2783;48.730;8.006;2022-09-01T16:03:06;2.97;;;1.38;;
5521;SDS011;2783;48.730;8.006;2022-09-01T16:05:33;2.22;;;1.45;;
5521;SDS011;2783;48.730;8.006;2022-09-01T16:08:00;2.20;;;1.27;;
5521;SDS011;2783;48.730;8.006;2022-09-01T16:10:29;2.58;;;1.45;;
5521;SDS011;2783;48.730;8.006;2022-09-01T16:12:56;1.92;;;1.05;;
5521;SDS011;2783;48.730;8.006;2022-09-01T16:15:22;2.83;;;1.50;;
5521;SDS011;2783;48.730;8.006;2022-09-01T16:23:43;2.97;;;1.40;;
5521;SDS011;2783;48.730;8.006;2022-09-01T16:26:12;3.33;;;1.15;;
5521;SDS011;2783;48.730;8.006;2022-09-01T16:28:38;2.42;;;1.40;;
5521;SDS011;2783;48.730;8.006;2022-09-01T16:31:13;2.38;;;1.30;;
5521;SDS011;2783;48.730;8.006;2022-09-01T16:33:45;3.00;;;1.40;;
5521;SDS011;2783;48.730;8.006;2022-09-01T16:36:20;2.55;;;1.27;;
5521;SDS011;2783;48.730;8.006;2022-09-01T16:39:06;2.58;;;1.35;;